sensor_id;sensor_type;location;lat;lon;timestamp;temperature;humidity
12303;DHT22;6214;48.012;7.862;2022-12-18T00:02:13;-3.80;99.90
12303;DHT22;6214;48.012;7.862;2022-12-18T00:04:40;-3.70;99.90
12303;DHT22;6214;48.012;7.862;2022-12-18T00:07:07;-3.80;99.90
12303;DHT22;6214;48.012;7.862;2022-12-18T00:09:34;-3.80;99.90
12303;DHT22;6214;48.012;7.862;2022-12-18T00:12:06;-3.70;99.90
12303;DHT22;6214;48.012;7.862;2022-12-18T00:14:43;-3.60;99.90
12303;DHT22;6214;48.012;7.862;2022-12-18T00:17:10;-3.60;99.90
12303;DHT22;6214;48.012;7.862;2022-12-18T00:19:36;-3.70;99.90
12303;DHT22;6214;48.012;7.862;2022-12-18T00:22:03;-3.80;99.90
12303;DHT22;6214;48.012;7.862;2022-12-18T00:24:30;-3.90;99.90
12303;DHT22;6214;48.012;7.862;2022-12-18T00:26:57;-4.00;99.90
12303;DHT22;6214;48.012;7.862;2022-12-18T00:29:24;-4.10;99.90
12303;DHT22;6214;48.012;7.862;2022-12-18T00:31:51;-4.10;99.90
12303;DHT22;6214;48.012;7.862;2022-12-18T00:34:17;-4.20;99.90
12303;DHT22;6214;48.012;7.862;2022-12-18T00:36:47;-4.20;99.90
12303;DHT22;6214;48.012;7.862;2022-12-18T00:39:14;-4.30;99.90
12303;DHT22;6214;48.012;7.862;2022-12-18T00:41:40;-4.20;99.90
12303;DHT22;6214;48.012;7.862;2022-12-18T00:44:26;-4.30;99.90
12303;DHT22;6214;48.012;7.862;2022-12-18T00:46:53;-4.30;99.90
12303;DHT22;6214;48.012;7.862;2022-12-18T00:49:20;-4.20;99.90
12303;DHT22;6214;48.012;7.862;2022-12-18T00:51:47;-4.20;99.90
12303;DHT22;6214;48.012;7.862;2022-12-18T00:54:15;-4.40;99.90
12303;DHT22;6214;48.012;7.862;2022-12-18T00:56:42;-4.40;99.90
12303;DHT22;6214;48.012;7.862;2022-12-18T00:59:17;-4.50;99.90
12303;DHT22;6214;48.012;7.862;2022-12-18T01:01:45;-4.60;99.90
12303;DHT22;6214;48.012;7.862;2022-12-18T01:04:13;-4.50;99.90
12303;DHT22;6214;48.012;7.862;2022-12-18T01:06:40;-4.50;99.90
12303;DHT22;6214;48.012;7.862;2022-12-18T01:09:06;-4.60;99.90
12303;DHT22;6214;48.012;7.862;2022-12-18T01:11:33;-4.60;99.90
12303;DHT22;6214;48.012;7.862;2022-12-18T01:14:00;-4.60;99.90
12303;DHT22;6214;48.012;7.862;2022-12-18T01:16:27;-4.60;99.90
12303;DHT22;6214;48.012;7.862;2022-12-18T01:18:54;-5.60;99.90
12303;DHT22;6214;48.012;7.862;2022-12-18T01:21:22;-4.70;99.90
12303;DHT22;6214;48.012;7.862;2022-12-18T01:23:54;-4.70;99.90
12303;DHT22;6214;48.012;7.862;2022-12-18T01:26:22;-4.80;99.90
12303;DHT22;6214;48.012;7.862;2022-12-18T01:28:49;-4.80;99.90
12303;DHT22;6214;48.012;7.862;2022-12-18T01:31:21;-4.90;99.90
12303;DHT22;6214;48.012;7.862;2022-12-18T01:33:50;-4.70;99.90
12303;DHT22;6214;48.012;7.862;2022-12-18T01:36:20;-4.80;99.90
12303;DHT22;6214;48.012;7.862;2022-12-18T01:38:47;-4.90;99.90
12303;DHT22;6214;48.012;7.862;2022-12-18T01:41:16;-4.90;99.90
12303;DHT22;6214;48.012;7.862;2022-12-18T01:44:46;-4.60;99.90
12303;DHT22;6214;48.012;7.862;2022-12-18T01:46:48;-4.60;99.90
12303;DHT22;6214;48.012;7.862;2022-12-18T01:49:15;-4.60;99.90
12303;DHT22;6214;48.012;7.862;2022-12-18T01:51:42;-4.50;99.90
12303;DHT22;6214;48.012;7.862;2022-12-18T01:54:09;-4.50;99.90
12303;DHT22;6214;48.012;7.862;2022-12-18T01:56:36;-4.30;99.90
12303;DHT22;6214;48.012;7.862;2022-12-18T01:59:05;-4.50;99.90
12303;DHT22;6214;48.012;7.862;2022-12-18T02:01:34;-4.50;99.90
12303;DHT22;6214;48.012;7.862;2022-12-18T02:04:22;-4.50;99.90
12303;DHT22;6214;48.012;7.862;2022-12-18T02:07:09;-4.40;99.90
12303;DHT22;6214;48.012;7.862;2022-12-18T02:09:48;-4.40;99.90
12303;DHT22;6214;48.012;7.862;2022-12-18T02:12:20;-4.30;99.90
12303;DHT22;6214;48.012;7.862;2022-12-18T02:17:40;-4.60;99.90
12303;DHT22;6214;48.012;7.862;2022-12-18T02:28:52;-4.60;99.90
12303;DHT22;6214;48.012;7.862;2022-12-18T02:31:27;-4.60;99.90
12303;DHT22;6214;48.012;7.862;2022-12-18T02:34:00;-4.70;99.90
12303;DHT22;6214;48.012;7.862;2022-12-18T02:36:29;-4.70;99.90
12303;DHT22;6214;48.012;7.862;2022-12-18T02:38:58;-4.60;99.90
12303;DHT22;6214;48.012;7.862;2022-12-18T02:41:26;-4.80;99.90
12303;DHT22;6214;48.012;7.862;2022-12-18T02:44:01;-4.70;99.90
12303;DHT22;6214;48.012;7.862;2022-12-18T02:46:37;-4.80;99.90
12303;DHT22;6214;48.012;7.862;2022-12-18T02:51:50;-4.80;99.90
12303;DHT22;6214;48.012;7.862;2022-12-18T02:54:32;-4.90;99.90
12303;DHT22;6214;48.012;7.862;2022-12-18T02:57:13;-4.90;99.90
12303;DHT22;6214;48.012;7.862;2022-12-18T02:59:56;-4.90;99.90
12303;DHT22;6214;48.012;7.862;2022-12-18T03:02:43;-4.80;99.90
12303;DHT22;6214;48.012;7.862;2022-12-18T03:05:32;-4.60;99.90
12303;DHT22;6214;48.012;7.862;2022-12-18T03:08:07;-4.40;99.90
12303;DHT22;6214;48.012;7.862;2022-12-18T03:10:57;-4.70;99.90
12303;DHT22;6214;48.012;7.862;2022-12-18T03:15:59;-5.00;99.90
12303;DHT22;6214;48.012;7.862;2022-12-18T03:21:06;-5.00;99.90
12303;DHT22;6214;48.012;7.862;2022-12-18T03:23:39;-4.90;99.90
12303;DHT22;6214;48.012;7.862;2022-12-18T03:26:11;-5.00;99.90
12303;DHT22;6214;48.012;7.862;2022-12-18T03:28:45;-5.00;99.90
12303;DHT22;6214;48.012;7.862;2022-12-18T03:31:14;-5.00;99.90
12303;DHT22;6214;48.012;7.862;2022-12-18T03:36:12;-4.90;99.90
12303;DHT22;6214;48.012;7.862;2022-12-18T03:38:39;-5.10;99.90
12303;DHT22;6214;48.012;7.862;2022-12-18T03:41:19;-5.10;99.90
12303;DHT22;6214;48.012;7.862;2022-12-18T03:44:14;-5.10;99.90
12303;DHT22;6214;48.012;7.862;2022-12-18T03:47:13;-5.20;99.90
12303;DHT22;6214;48.012;7.862;2022-12-18T03:49:48;-5.20;99.90
12303;DHT22;6214;48.012;7.862;2022-12-18T03:52:30;-5.20;99.90
12303;DHT22;6214;48.012;7.862;2022-12-18T03:54:58;-5.10;99.90
12303;DHT22;6214;48.012;7.862;2022-12-18T03:57:28;-5.10;99.90
12303;DHT22;6214;48.012;7.862;2022-12-18T04:00:05;-5.00;99.90
12303;DHT22;6214;48.012;7.862;2022-12-18T04:02:34;-5.30;99.90
12303;DHT22;6214;48.012;7.862;2022-12-18T04:05:04;-5.10;99.90
12303;DHT22;6214;48.012;7.862;2022-12-18T04:07:32;-5.10;99.90
12303;DHT22;6214;48.012;7.862;2022-12-18T04:10:00;-5.10;99.90
12303;DHT22;6214;48.012;7.862;2022-12-18T04:12:29;-5.10;99.90
12303;DHT22;6214;48.012;7.862;2022-12-18T04:14:56;-5.10;99.90
12303;DHT22;6214;48.012;7.862;2022-12-18T04:17:23;-5.10;99.90
12303;DHT22;6214;48.012;7.862;2022-12-18T04:19:50;-5.10;99.90
12303;DHT22;6214;48.012;7.862;2022-12-18T04:22:17;-5.00;99.90
12303;DHT22;6214;48.012;7.862;2022-12-18T04:24:44;-4.90;99.90
12303;DHT22;6214;48.012;7.862;2022-12-18T04:27:11;-4.90;99.90
12303;DHT22;6214;48.012;7.862;2022-12-18T04:29:37;-5.00;99.90
12303;DHT22;6214;48.012;7.862;2022-12-18T04:32:04;-5.10;99.90
12303;DHT22;6214;48.012;7.862;2022-12-18T04:34:31;-5.10;99.90
12303;DHT22;6214;48.012;7.862;2022-12-18T04:36:58;-5.10;99.90
12303;DHT22;6214;48.012;7.862;2022-12-18T04:39:25;-5.10;99.90
12303;DHT22;6214;48.012;7.862;2022-12-18T04:41:52;-5.20;99.90
12303;DHT22;6214;48.012;7.862;2022-12-18T04:44:19;-5.20;99.90
12303;DHT22;6214;48.012;7.862;2022-12-18T04:46:45;-5.20;99.90
12303;DHT22;6214;48.012;7.862;2022-12-18T04:49:12;-5.10;99.90
12303;DHT22;6214;48.012;7.862;2022-12-18T04:51:39;-5.20;99.90
12303;DHT22;6214;48.012;7.862;2022-12-18T04:54:06;-5.20;99.90
12303;DHT22;6214;48.012;7.862;2022-12-18T04:56:33;-5.20;99.90
12303;DHT22;6214;48.012;7.862;2022-12-18T04:58:59;-5.30;99.90
12303;DHT22;6214;48.012;7.862;2022-12-18T05:01:26;-5.30;99.90
12303;DHT22;6214;48.012;7.862;2022-12-18T05:04:01;-5.40;99.90
12303;DHT22;6214;48.012;7.862;2022-12-18T05:06:27;-5.50;99.90
12303;DHT22;6214;48.012;7.862;2022-12-18T05:08:54;-5.20;99.90
12303;DHT22;6214;48.012;7.862;2022-12-18T05:11:21;-5.40;99.90
12303;DHT22;6214;48.012;7.862;2022-12-18T05:13:48;-5.40;99.90
12303;DHT22;6214;48.012;7.862;2022-12-18T05:16:15;-5.30;99.90
12303;DHT22;6214;48.012;7.862;2022-12-18T05:18:42;-5.50;99.90
12303;DHT22;6214;48.012;7.862;2022-12-18T05:21:09;-5.60;99.90
12303;DHT22;6214;48.012;7.862;2022-12-18T05:23:36;-5.60;99.90
12303;DHT22;6214;48.012;7.862;2022-12-18T05:26:05;-5.50;99.90
12303;DHT22;6214;48.012;7.862;2022-12-18T05:28:34;-5.40;99.90
12303;DHT22;6214;48.012;7.862;2022-12-18T05:31:02;-5.30;99.90
12303;DHT22;6214;48.012;7.862;2022-12-18T05:33:31;-5.30;99.90
12303;DHT22;6214;48.012;7.862;2022-12-18T05:36:00;-5.30;99.90
12303;DHT22;6214;48.012;7.862;2022-12-18T05:38:29;-5.20;99.90
12303;DHT22;6214;48.012;7.862;2022-12-18T05:40:57;-5.30;99.90
12303;DHT22;6214;48.012;7.862;2022-12-18T05:43:25;-5.50;99.90
12303;DHT22;6214;48.012;7.862;2022-12-18T05:45:53;-5.40;99.90
12303;DHT22;6214;48.012;7.862;2022-12-18T05:48:20;-5.40;99.90
12303;DHT22;6214;48.012;7.862;2022-12-18T05:50:48;-5.50;99.90
12303;DHT22;6214;48.012;7.862;2022-12-18T05:53:17;-5.70;99.90
12303;DHT22;6214;48.012;7.862;2022-12-18T05:55:44;-5.70;99.90
12303;DHT22;6214;48.012;7.862;2022-12-18T05:58:12;-5.50;99.90
12303;DHT22;6214;48.012;7.862;2022-12-18T06:00:42;-5.50;99.90
12303;DHT22;6214;48.012;7.862;2022-12-18T06:03:10;-5.70;99.90
12303;DHT22;6214;48.012;7.862;2022-12-18T06:05:41;-5.80;99.90
12303;DHT22;6214;48.012;7.862;2022-12-18T06:08:09;-5.70;99.90
12303;DHT22;6214;48.012;7.862;2022-12-18T06:10:36;-5.70;99.90
12303;DHT22;6214;48.012;7.862;2022-12-18T06:13:04;-5.60;99.90
12303;DHT22;6214;48.012;7.862;2022-12-18T06:15:31;-5.60;99.90
12303;DHT22;6214;48.012;7.862;2022-12-18T06:18:00;-5.60;99.90
12303;DHT22;6214;48.012;7.862;2022-12-18T06:20:27;-5.50;99.90
12303;DHT22;6214;48.012;7.862;2022-12-18T06:22:59;-5.50;99.90
12303;DHT22;6214;48.012;7.862;2022-12-18T06:25:26;-5.70;99.90
12303;DHT22;6214;48.012;7.862;2022-12-18T06:27:53;-5.90;99.90
12303;DHT22;6214;48.012;7.862;2022-12-18T06:30:20;-5.90;99.90
12303;DHT22;6214;48.012;7.862;2022-12-18T06:32:48;-5.90;99.90
12303;DHT22;6214;48.012;7.862;2022-12-18T06:35:22;-6.00;99.90
12303;DHT22;6214;48.012;7.862;2022-12-18T06:37:48;-6.00;99.90
12303;DHT22;6214;48.012;7.862;2022-12-18T06:40:16;-6.10;99.90
12303;DHT22;6214;48.012;7.862;2022-12-18T06:42:43;-6.00;99.90
12303;DHT22;6214;48.012;7.862;2022-12-18T06:45:10;-5.60;99.90
12303;DHT22;6214;48.012;7.862;2022-12-18T06:47:37;-6.00;99.90
12303;DHT22;6214;48.012;7.862;2022-12-18T06:50:05;-6.10;99.90
12303;DHT22;6214;48.012;7.862;2022-12-18T06:52:32;-6.10;99.90
12303;DHT22;6214;48.012;7.862;2022-12-18T06:55:00;-6.40;99.90
12303;DHT22;6214;48.012;7.862;2022-12-18T06:57:27;-6.10;99.90
12303;DHT22;6214;48.012;7.862;2022-12-18T06:59:54;-6.20;99.90
12303;DHT22;6214;48.012;7.862;2022-12-18T07:02:21;-6.20;99.90
12303;DHT22;6214;48.012;7.862;2022-12-18T07:04:49;-6.20;99.90
12303;DHT22;6214;48.012;7.862;2022-12-18T07:07:16;-6.20;99.90
12303;DHT22;6214;48.012;7.862;2022-12-18T07:09:42;-6.20;99.90
12303;DHT22;6214;48.012;7.862;2022-12-18T07:12:09;-5.90;99.90
12303;DHT22;6214;48.012;7.862;2022-12-18T07:14:36;-5.80;99.90
12303;DHT22;6214;48.012;7.862;2022-12-18T07:17:03;-5.80;99.90
12303;DHT22;6214;48.012;7.862;2022-12-18T07:19:31;-5.90;99.90
12303;DHT22;6214;48.012;7.862;2022-12-18T07:21:58;-5.80;99.90
12303;DHT22;6214;48.012;7.862;2022-12-18T07:24:24;-5.90;99.90
12303;DHT22;6214;48.012;7.862;2022-12-18T07:26:51;-5.90;99.90
12303;DHT22;6214;48.012;7.862;2022-12-18T07:29:18;-5.70;99.90
12303;DHT22;6214;48.012;7.862;2022-12-18T07:31:45;-5.70;99.90
12303;DHT22;6214;48.012;7.862;2022-12-18T07:34:13;-5.80;99.90
12303;DHT22;6214;48.012;7.862;2022-12-18T07:36:41;-5.90;99.90
12303;DHT22;6214;48.012;7.862;2022-12-18T07:39:08;-5.80;99.90
12303;DHT22;6214;48.012;7.862;2022-12-18T07:41:34;-5.90;99.90
12303;DHT22;6214;48.012;7.862;2022-12-18T07:44:01;-5.80;99.90
12303;DHT22;6214;48.012;7.862;2022-12-18T07:46:28;-6.00;99.90
12303;DHT22;6214;48.012;7.862;2022-12-18T07:48:55;-5.80;99.90
12303;DHT22;6214;48.012;7.862;2022-12-18T07:51:22;-5.80;99.90
12303;DHT22;6214;48.012;7.862;2022-12-18T07:53:48;-5.80;99.90
12303;DHT22;6214;48.012;7.862;2022-12-18T07:56:18;-5.80;99.90
12303;DHT22;6214;48.012;7.862;2022-12-18T07:58:55;-5.70;99.90
12303;DHT22;6214;48.012;7.862;2022-12-18T08:01:22;-5.60;99.90
12303;DHT22;6214;48.012;7.862;2022-12-18T08:03:50;-5.80;99.90
12303;DHT22;6214;48.012;7.862;2022-12-18T08:06:18;-5.50;99.90
12303;DHT22;6214;48.012;7.862;2022-12-18T08:08:51;-5.40;99.90
12303;DHT22;6214;48.012;7.862;2022-12-18T08:11:18;-5.30;99.90
12303;DHT22;6214;48.012;7.862;2022-12-18T08:13:47;-5.30;99.90
12303;DHT22;6214;48.012;7.862;2022-12-18T08:16:13;-5.10;99.90
12303;DHT22;6214;48.012;7.862;2022-12-18T08:18:40;-5.10;99.90
12303;DHT22;6214;48.012;7.862;2022-12-18T08:21:19;-5.20;99.90
12303;DHT22;6214;48.012;7.862;2022-12-18T08:23:48;-5.00;99.90
12303;DHT22;6214;48.012;7.862;2022-12-18T08:26:17;-4.90;99.90
12303;DHT22;6214;48.012;7.862;2022-12-18T08:28:44;-3.00;99.90
12303;DHT22;6214;48.012;7.862;2022-12-18T08:31:11;-2.80;99.90
12303;DHT22;6214;48.012;7.862;2022-12-18T08:33:39;-1.70;99.90
12303;DHT22;6214;48.012;7.862;2022-12-18T08:36:08;-0.50;99.90
12303;DHT22;6214;48.012;7.862;2022-12-18T08:38:35;-0.30;99.90
12303;DHT22;6214;48.012;7.862;2022-12-18T08:41:06;-0.80;99.90
12303;DHT22;6214;48.012;7.862;2022-12-18T08:43:34;-1.80;99.90
12303;DHT22;6214;48.012;7.862;2022-12-18T08:46:21;-2.40;99.90
12303;DHT22;6214;48.012;7.862;2022-12-18T08:48:50;-3.30;99.90
12303;DHT22;6214;48.012;7.862;2022-12-18T08:51:17;-3.70;99.90
12303;DHT22;6214;48.012;7.862;2022-12-18T08:53:45;-3.90;99.90
12303;DHT22;6214;48.012;7.862;2022-12-18T08:56:13;-4.00;99.90
12303;DHT22;6214;48.012;7.862;2022-12-18T08:58:42;-4.10;99.90
12303;DHT22;6214;48.012;7.862;2022-12-18T09:01:10;-4.30;99.90
12303;DHT22;6214;48.012;7.862;2022-12-18T09:03:39;-4.50;99.90
12303;DHT22;6214;48.012;7.862;2022-12-18T09:06:07;-4.60;99.90
12303;DHT22;6214;48.012;7.862;2022-12-18T09:08:34;-4.50;99.90
12303;DHT22;6214;48.012;7.862;2022-12-18T09:11:01;-4.50;99.90
12303;DHT22;6214;48.012;7.862;2022-12-18T09:13:28;-4.30;99.90
12303;DHT22;6214;48.012;7.862;2022-12-18T09:15:55;-4.30;99.90
12303;DHT22;6214;48.012;7.862;2022-12-18T09:18:23;-4.20;99.90
12303;DHT22;6214;48.012;7.862;2022-12-18T09:20:50;-4.00;99.90
12303;DHT22;6214;48.012;7.862;2022-12-18T09:23:19;-4.00;99.90
12303;DHT22;6214;48.012;7.862;2022-12-18T09:25:46;-4.20;99.90
12303;DHT22;6214;48.012;7.862;2022-12-18T09:28:17;-4.20;99.90
12303;DHT22;6214;48.012;7.862;2022-12-18T09:30:47;-4.20;99.90
12303;DHT22;6214;48.012;7.862;2022-12-18T09:33:16;-4.20;99.90
12303;DHT22;6214;48.012;7.862;2022-12-18T09:35:44;-4.20;99.90
12303;DHT22;6214;48.012;7.862;2022-12-18T09:38:13;-4.10;99.90
12303;DHT22;6214;48.012;7.862;2022-12-18T09:40:51;-3.90;99.90
12303;DHT22;6214;48.012;7.862;2022-12-18T09:43:52;-3.60;99.90
12303;DHT22;6214;48.012;7.862;2022-12-18T09:46:28;-3.50;99.90
12303;DHT22;6214;48.012;7.862;2022-12-18T09:49:01;-3.50;99.90
12303;DHT22;6214;48.012;7.862;2022-12-18T09:51:36;-3.50;99.90
12303;DHT22;6214;48.012;7.862;2022-12-18T09:54:32;-3.60;99.90
12303;DHT22;6214;48.012;7.862;2022-12-18T09:56:53;-3.70;99.90
12303;DHT22;6214;48.012;7.862;2022-12-18T09:59:40;-3.50;99.90
12303;DHT22;6214;48.012;7.862;2022-12-18T10:02:17;-3.30;99.90
12303;DHT22;6214;48.012;7.862;2022-12-18T10:05:37;-3.00;99.90
12303;DHT22;6214;48.012;7.862;2022-12-18T10:07:55;-2.90;99.90
12303;DHT22;6214;48.012;7.862;2022-12-18T10:10:52;-2.70;99.90
12303;DHT22;6214;48.012;7.862;2022-12-18T10:13:37;-2.60;99.90
12303;DHT22;6214;48.012;7.862;2022-12-18T10:16:43;-2.50;99.90
12303;DHT22;6214;48.012;7.862;2022-12-18T10:19:38;-2.40;99.90
12303;DHT22;6214;48.012;7.862;2022-12-18T10:25:23;-2.30;99.90
12303;DHT22;6214;48.012;7.862;2022-12-18T10:27:55;-2.30;99.90
12303;DHT22;6214;48.012;7.862;2022-12-18T10:30:24;-2.50;99.90
12303;DHT22;6214;48.012;7.862;2022-12-18T10:32:51;-2.60;99.90
12303;DHT22;6214;48.012;7.862;2022-12-18T10:35:22;-2.40;99.90
12303;DHT22;6214;48.012;7.862;2022-12-18T10:41:04;-2.20;99.90
12303;DHT22;6214;48.012;7.862;2022-12-18T10:43:35;-2.20;99.90
12303;DHT22;6214;48.012;7.862;2022-12-18T10:51:08;-2.50;99.90
12303;DHT22;6214;48.012;7.862;2022-12-18T10:53:41;-2.50;99.90
12303;DHT22;6214;48.012;7.862;2022-12-18T10:56:09;-2.50;99.90
12303;DHT22;6214;48.012;7.862;2022-12-18T10:58:37;-2.30;99.90
12303;DHT22;6214;48.012;7.862;2022-12-18T11:01:17;-2.20;99.90
12303;DHT22;6214;48.012;7.862;2022-12-18T11:04:00;-2.40;99.90
12303;DHT22;6214;48.012;7.862;2022-12-18T11:06:29;-2.40;99.90
12303;DHT22;6214;48.012;7.862;2022-12-18T11:09:29;-2.30;99.90
12303;DHT22;6214;48.012;7.862;2022-12-18T11:11:59;-2.10;99.90
12303;DHT22;6214;48.012;7.862;2022-12-18T11:14:43;-1.80;99.90
12303;DHT22;6214;48.012;7.862;2022-12-18T11:17:31;-1.80;99.90
12303;DHT22;6214;48.012;7.862;2022-12-18T11:20:00;-1.80;99.90
12303;DHT22;6214;48.012;7.862;2022-12-18T11:22:30;-1.90;99.90
12303;DHT22;6214;48.012;7.862;2022-12-18T11:25:02;-1.90;99.90
12303;DHT22;6214;48.012;7.862;2022-12-18T11:27:56;-2.00;99.90
12303;DHT22;6214;48.012;7.862;2022-12-18T11:30:31;-2.00;99.90
12303;DHT22;6214;48.012;7.862;2022-12-18T11:33:16;-1.90;99.90
12303;DHT22;6214;48.012;7.862;2022-12-18T11:36:00;-1.80;99.90
12303;DHT22;6214;48.012;7.862;2022-12-18T11:38:33;-1.70;99.90
12303;DHT22;6214;48.012;7.862;2022-12-18T11:41:46;-1.40;99.90
12303;DHT22;6214;48.012;7.862;2022-12-18T11:47:38;-1.30;99.90
12303;DHT22;6214;48.012;7.862;2022-12-18T11:50:14;-1.50;99.90
12303;DHT22;6214;48.012;7.862;2022-12-18T11:52:42;-1.60;99.90
12303;DHT22;6214;48.012;7.862;2022-12-18T12:00:29;-1.40;99.90
12303;DHT22;6214;48.012;7.862;2022-12-18T12:16:59;-1.10;99.90
12303;DHT22;6214;48.012;7.862;2022-12-18T12:34:37;-0.50;99.90
12303;DHT22;6214;48.012;7.862;2022-12-18T12:37:09;-0.60;99.90
12303;DHT22;6214;48.012;7.862;2022-12-18T12:39:40;-0.90;99.90
12303;DHT22;6214;48.012;7.862;2022-12-18T12:42:20;-0.80;99.90
12303;DHT22;6214;48.012;7.862;2022-12-18T12:45:18;-0.90;99.90
12303;DHT22;6214;48.012;7.862;2022-12-18T12:47:48;-0.90;99.90
12303;DHT22;6214;48.012;7.862;2022-12-18T12:50:18;-0.80;99.90
12303;DHT22;6214;48.012;7.862;2022-12-18T12:52:54;-0.80;99.90
12303;DHT22;6214;48.012;7.862;2022-12-18T12:55:24;-0.80;99.90
12303;DHT22;6214;48.012;7.862;2022-12-18T12:57:57;-0.80;99.90
12303;DHT22;6214;48.012;7.862;2022-12-18T13:00:35;-0.70;99.90
12303;DHT22;6214;48.012;7.862;2022-12-18T13:03:07;-0.70;99.90
12303;DHT22;6214;48.012;7.862;2022-12-18T13:05:52;-0.70;99.90
12303;DHT22;6214;48.012;7.862;2022-12-18T13:08:26;-0.90;99.90
12303;DHT22;6214;48.012;7.862;2022-12-18T13:10:59;-0.80;99.90
12303;DHT22;6214;48.012;7.862;2022-12-18T13:13:54;-0.80;99.90
12303;DHT22;6214;48.012;7.862;2022-12-18T13:16:26;-0.60;99.90
12303;DHT22;6214;48.012;7.862;2022-12-18T13:18:55;-0.60;99.90
12303;DHT22;6214;48.012;7.862;2022-12-18T13:21:30;-0.50;99.90
12303;DHT22;6214;48.012;7.862;2022-12-18T13:24:20;-0.30;99.90
12303;DHT22;6214;48.012;7.862;2022-12-18T13:26:49;-0.40;99.90
12303;DHT22;6214;48.012;7.862;2022-12-18T13:29:44;-0.30;99.90
12303;DHT22;6214;48.012;7.862;2022-12-18T13:32:25;-0.30;99.90
12303;DHT22;6214;48.012;7.862;2022-12-18T13:37:53;-0.30;99.90
12303;DHT22;6214;48.012;7.862;2022-12-18T13:46:22;-0.30;99.90
12303;DHT22;6214;48.012;7.862;2022-12-18T13:51:24;-0.30;99.90
12303;DHT22;6214;48.012;7.862;2022-12-18T13:53:55;-0.40;99.90
12303;DHT22;6214;48.012;7.862;2022-12-18T13:56:27;-0.50;99.90
12303;DHT22;6214;48.012;7.862;2022-12-18T14:01:53;-0.30;99.90
12303;DHT22;6214;48.012;7.862;2022-12-18T14:06:50;-0.10;99.90
12303;DHT22;6214;48.012;7.862;2022-12-18T14:09:26;-0.10;99.90
12303;DHT22;6214;48.012;7.862;2022-12-18T14:11:56;-0.10;99.90
12303;DHT22;6214;48.012;7.862;2022-12-18T14:14:46;-0.20;99.90
12303;DHT22;6214;48.012;7.862;2022-12-18T14:17:15;-0.20;99.90
12303;DHT22;6214;48.012;7.862;2022-12-18T14:19:50;-0.10;99.90
12303;DHT22;6214;48.012;7.862;2022-12-18T14:22:24;-0.20;99.90
12303;DHT22;6214;48.012;7.862;2022-12-18T14:27:52;-0.20;99.90
12303;DHT22;6214;48.012;7.862;2022-12-18T14:30:41;-0.20;99.90
12303;DHT22;6214;48.012;7.862;2022-12-18T14:35:59;-0.10;99.90
12303;DHT22;6214;48.012;7.862;2022-12-18T14:40:56;-0.30;99.90
12303;DHT22;6214;48.012;7.862;2022-12-18T14:43:24;-0.30;99.90
12303;DHT22;6214;48.012;7.862;2022-12-18T14:45:51;-0.30;99.90
12303;DHT22;6214;48.012;7.862;2022-12-18T14:51:24;-0.30;99.90
12303;DHT22;6214;48.012;7.862;2022-12-18T14:54:03;-0.30;99.90
12303;DHT22;6214;48.012;7.862;2022-12-18T14:56:35;-0.40;99.90
12303;DHT22;6214;48.012;7.862;2022-12-18T14:59:06;-0.50;99.90
12303;DHT22;6214;48.012;7.862;2022-12-18T15:01:46;-0.60;99.90
12303;DHT22;6214;48.012;7.862;2022-12-18T15:09:31;-0.70;99.90
12303;DHT22;6214;48.012;7.862;2022-12-18T15:12:00;-0.70;99.90
12303;DHT22;6214;48.012;7.862;2022-12-18T15:14:40;-0.60;99.90
12303;DHT22;6214;48.012;7.862;2022-12-18T15:17:18;-0.50;99.90
12303;DHT22;6214;48.012;7.862;2022-12-18T15:19:46;-0.50;99.90
12303;DHT22;6214;48.012;7.862;2022-12-18T15:22:36;-0.40;99.90
12303;DHT22;6214;48.012;7.862;2022-12-18T15:25:27;-0.50;99.90
12303;DHT22;6214;48.012;7.862;2022-12-18T15:27:58;-0.60;99.90
12303;DHT22;6214;48.012;7.862;2022-12-18T15:30:26;-0.60;99.90
12303;DHT22;6214;48.012;7.862;2022-12-18T15:33:17;-0.50;99.90
12303;DHT22;6214;48.012;7.862;2022-12-18T15:35:56;-0.40;99.90
12303;DHT22;6214;48.012;7.862;2022-12-18T15:38:24;-0.40;99.90
12303;DHT22;6214;48.012;7.862;2022-12-18T15:40:51;-0.30;99.90
12303;DHT22;6214;48.012;7.862;2022-12-18T15:43:21;-0.30;99.90
12303;DHT22;6214;48.012;7.862;2022-12-18T15:46:05;-0.30;99.90
12303;DHT22;6214;48.012;7.862;2022-12-18T15:48:40;-0.30;99.90
12303;DHT22;6214;48.012;7.862;2022-12-18T15:51:20;-0.40;99.90
12303;DHT22;6214;48.012;7.862;2022-12-18T15:53:50;-0.40;99.90
12303;DHT22;6214;48.012;7.862;2022-12-18T15:56:18;-0.40;99.90
12303;DHT22;6214;48.012;7.862;2022-12-18T15:59:12;-0.40;99.90
12303;DHT22;6214;48.012;7.862;2022-12-18T16:01:40;-0.40;99.90
12303;DHT22;6214;48.012;7.862;2022-12-18T16:04:12;-0.40;99.90
12303;DHT22;6214;48.012;7.862;2022-12-18T16:06:40;-0.40;99.90
12303;DHT22;6214;48.012;7.862;2022-12-18T16:09:27;-0.30;99.90
12303;DHT22;6214;48.012;7.862;2022-12-18T16:11:55;-0.30;99.90
12303;DHT22;6214;48.012;7.862;2022-12-18T16:16:55;-0.30;99.90
12303;DHT22;6214;48.012;7.862;2022-12-18T16:19:23;-0.30;99.90
12303;DHT22;6214;48.012;7.862;2022-12-18T16:21:52;-0.30;99.90
12303;DHT22;6214;48.012;7.862;2022-12-18T16:24:28;-0.30;99.90
12303;DHT22;6214;48.012;7.862;2022-12-18T16:26:57;-0.30;99.90
12303;DHT22;6214;48.012;7.862;2022-12-18T16:29:27;-0.40;99.90
12303;DHT22;6214;48.012;7.862;2022-12-18T16:31:58;-0.40;99.90
12303;DHT22;6214;48.012;7.862;2022-12-18T16:34:30;-0.40;99.90
12303;DHT22;6214;48.012;7.862;2022-12-18T16:37:04;-0.40;99.90
12303;DHT22;6214;48.012;7.862;2022-12-18T16:39:33;-0.40;99.90
12303;DHT22;6214;48.012;7.862;2022-12-18T16:42:03;-0.50;99.90
12303;DHT22;6214;48.012;7.862;2022-12-18T16:44:35;-0.50;99.90
12303;DHT22;6214;48.012;7.862;2022-12-18T16:47:03;-0.50;99.90
12303;DHT22;6214;48.012;7.862;2022-12-18T16:49:30;-0.60;99.90
12303;DHT22;6214;48.012;7.862;2022-12-18T16:51:57;-0.60;99.90
12303;DHT22;6214;48.012;7.862;2022-12-18T16:54:24;-0.50;99.90
12303;DHT22;6214;48.012;7.862;2022-12-18T16:56:51;-0.50;99.90
12303;DHT22;6214;48.012;7.862;2022-12-18T16:59:18;-0.40;99.90
12303;DHT22;6214;48.012;7.862;2022-12-18T17:01:46;-0.30;99.90
12303;DHT22;6214;48.012;7.862;2022-12-18T17:04:13;-0.30;99.90
12303;DHT22;6214;48.012;7.862;2022-12-18T17:06:43;-0.30;99.90
12303;DHT22;6214;48.012;7.862;2022-12-18T17:09:12;-0.30;99.90
12303;DHT22;6214;48.012;7.862;2022-12-18T17:11:42;-0.40;99.90
12303;DHT22;6214;48.012;7.862;2022-12-18T17:14:15;-0.30;99.90
12303;DHT22;6214;48.012;7.862;2022-12-18T17:16:42;-0.40;99.90
12303;DHT22;6214;48.012;7.862;2022-12-18T17:19:10;-0.40;99.90
12303;DHT22;6214;48.012;7.862;2022-12-18T17:21:47;-0.60;99.90
12303;DHT22;6214;48.012;7.862;2022-12-18T17:24:14;-0.70;99.90
12303;DHT22;6214;48.012;7.862;2022-12-18T17:26:43;-0.70;99.90
12303;DHT22;6214;48.012;7.862;2022-12-18T17:29:17;-0.60;99.90
12303;DHT22;6214;48.012;7.862;2022-12-18T17:31:47;-0.50;99.90
12303;DHT22;6214;48.012;7.862;2022-12-18T17:34:14;-0.50;99.90
12303;DHT22;6214;48.012;7.862;2022-12-18T17:36:41;-0.40;99.90
12303;DHT22;6214;48.012;7.862;2022-12-18T17:39:16;-0.50;99.90
12303;DHT22;6214;48.012;7.862;2022-12-18T17:41:44;-0.50;99.90
12303;DHT22;6214;48.012;7.862;2022-12-18T17:44:11;-0.40;99.90
12303;DHT22;6214;48.012;7.862;2022-12-18T17:46:41;-0.40;99.90
12303;DHT22;6214;48.012;7.862;2022-12-18T17:49:09;-0.30;99.90
12303;DHT22;6214;48.012;7.862;2022-12-18T17:51:35;-0.40;99.90
12303;DHT22;6214;48.012;7.862;2022-12-18T17:54:02;-0.40;99.90
12303;DHT22;6214;48.012;7.862;2022-12-18T17:56:31;-0.60;99.90
12303;DHT22;6214;48.012;7.862;2022-12-18T17:58:59;-0.70;99.90
12303;DHT22;6214;48.012;7.862;2022-12-18T18:01:26;-0.70;99.90